createdAt,value
2019-06-20T00:00:33.297Z,99.90
2019-06-20T00:05:40.464Z,99.90
2019-06-20T00:10:47.635Z,99.90
2019-06-20T00:15:54.732Z,99.90
2019-06-20T00:21:01.847Z,99.90
2019-06-20T00:26:08.876Z,99.90
2019-06-20T00:31:15.841Z,99.90
2019-06-20T00:36:22.996Z,99.90
2019-06-20T00:41:30.257Z,99.90
2019-06-20T00:46:37.308Z,99.90
2019-06-20T00:51:44.472Z,99.90
2019-06-20T00:56:51.535Z,99.90
2019-06-20T01:01:58.672Z,99.90
2019-06-20T01:07:06.083Z,99.90
2019-06-20T01:12:13.350Z,99.90
2019-06-20T01:17:20.548Z,99.90
2019-06-20T01:22:27.680Z,99.90
2019-06-20T01:27:35.104Z,99.90
2019-06-20T01:32:42.760Z,99.90
2019-06-20T01:37:50.004Z,99.90
2019-06-20T01:42:57.184Z,99.90
2019-06-20T01:48:04.784Z,99.90
2019-06-20T01:53:12.332Z,99.90
2019-06-20T01:58:20.144Z,99.90
2019-06-20T02:03:27.319Z,99.90
2019-06-20T02:08:35.029Z,99.90
2019-06-20T02:14:06.761Z,99.90
2019-06-20T02:19:02.855Z,99.90
2019-06-20T02:24:10.041Z,99.90
2019-06-20T02:29:17.074Z,99.90
2019-06-20T02:34:24.158Z,99.90
2019-06-20T02:39:31.477Z,99.90
2019-06-20T02:44:38.559Z,99.90
2019-06-20T02:49:45.600Z,99.90
2019-06-20T02:54:53.329Z,99.90
2019-06-20T03:00:00.411Z,99.90
2019-06-20T03:05:07.615Z,99.90
2019-06-20T03:10:15.478Z,99.90
2019-06-20T03:15:22.520Z,99.90
2019-06-20T03:20:29.497Z,99.90
2019-06-20T03:25:36.568Z,99.90
2019-06-20T03:30:43.620Z,99.90
2019-06-20T03:35:50.718Z,99.90
2019-06-20T03:40:57.659Z,99.90
2019-06-20T03:46:04.690Z,99.90
2019-06-20T03:51:11.701Z,99.90
2019-06-20T03:56:21.229Z,99.90
2019-06-20T04:01:28.603Z,99.90
2019-06-20T04:06:35.677Z,99.90
2019-06-20T04:11:43.081Z,99.90
2019-06-20T04:16:50.161Z,99.90
2019-06-20T04:21:57.200Z,99.90
2019-06-20T04:27:04.556Z,99.90
2019-06-20T04:32:11.659Z,99.90
2019-06-20T04:37:18.794Z,99.90
2019-06-20T04:42:26.073Z,99.90
2019-06-20T04:47:33.197Z,99.90
2019-06-20T04:52:40.345Z,99.90
2019-06-20T04:57:47.550Z,99.90
2019-06-20T05:02:54.566Z,99.90
2019-06-20T05:08:01.700Z,99.90
2019-06-20T05:13:08.750Z,99.90
2019-06-20T05:18:15.821Z,99.90
2019-06-20T05:23:22.795Z,99.90
2019-06-20T05:28:29.907Z,99.90
2019-06-20T05:33:37.005Z,99.90
2019-06-20T05:38:44.778Z,99.90
2019-06-20T05:43:52.090Z,99.90
2019-06-20T05:48:59.289Z,99.90
2019-06-20T05:54:06.386Z,99.90
2019-06-20T05:59:14.530Z,99.90
2019-06-20T06:04:21.670Z,99.90
2019-06-20T06:09:28.865Z,99.90
2019-06-20T06:14:36.976Z,99.90
2019-06-20T06:19:44.038Z,99.90
2019-06-20T06:24:51.566Z,99.90
2019-06-20T06:29:58.638Z,99.90
2019-06-20T06:35:06.680Z,99.90
2019-06-20T06:40:14.603Z,99.90
2019-06-20T06:45:22.509Z,99.90
2019-06-20T06:50:29.801Z,99.90
2019-06-20T06:55:36.917Z,99.90
2019-06-20T07:00:44.319Z,99.90
2019-06-20T07:05:51.712Z,99.90
2019-06-20T07:10:58.774Z,99.90
2019-06-20T07:16:06.101Z,99.90
2019-06-20T07:21:13.905Z,99.90
2019-06-20T07:26:22.869Z,99.90
2019-06-20T07:31:30.038Z,98.70
2019-06-20T07:36:37.166Z,97.80
2019-06-20T07:41:45.346Z,96.80
2019-06-20T07:46:52.818Z,95.50
2019-06-20T07:52:07.236Z,93.90
2019-06-20T07:57:35.210Z,94.20
2019-06-20T08:03:11.993Z,94.30
2019-06-20T08:08:37.167Z,94.70
2019-06-20T08:13:44.456Z,94.40
2019-06-20T08:18:52.489Z,94.60
2019-06-20T08:24:02.318Z,88.30
2019-06-20T08:29:20.740Z,88.00
2019-06-20T08:34:19.778Z,87.90
2019-06-20T08:39:29.264Z,84.20
2019-06-20T08:44:36.641Z,83.00
2019-06-20T08:49:43.688Z,78.60
2019-06-20T08:54:51.990Z,75.50
2019-06-20T09:00:00.581Z,75.00
2019-06-20T09:05:09.747Z,74.20
2019-06-20T09:10:17.622Z,74.70
2019-06-20T09:15:24.693Z,69.70
2019-06-20T09:20:31.876Z,66.40
2019-06-20T09:25:39.058Z,66.00
2019-06-20T09:30:47.543Z,65.00
2019-06-20T09:35:55.600Z,59.40
2019-06-20T09:41:03.466Z,61.10
2019-06-20T09:46:10.937Z,60.80
2019-06-20T09:51:18.140Z,61.70
2019-06-20T09:56:26.616Z,63.60
2019-06-20T10:01:34.007Z,63.90
2019-06-20T10:06:41.465Z,62.50
2019-06-20T10:11:49.629Z,62.60
2019-06-20T10:16:56.962Z,59.50
2019-06-20T10:22:04.349Z,58.90
2019-06-20T10:27:11.404Z,59.10
2019-06-20T10:32:18.487Z,57.80
2019-06-20T10:37:25.549Z,57.70
2019-06-20T10:42:32.726Z,57.70
2019-06-20T10:47:39.916Z,58.80
2019-06-20T10:52:48.023Z,57.10
2019-06-20T10:57:55.370Z,57.50
2019-06-20T11:03:02.448Z,58.50
2019-06-20T11:08:09.516Z,58.10
2019-06-20T11:13:16.580Z,55.50
2019-06-20T11:18:23.592Z,55.80
2019-06-20T11:27:21.724Z,57.00
2019-06-20T11:32:28.865Z,54.60
2019-06-20T11:37:36.466Z,56.00
2019-06-20T11:42:44.702Z,61.70
2019-06-20T11:47:51.816Z,68.90
2019-06-20T11:52:58.840Z,65.40
2019-06-20T11:58:07.004Z,68.80
2019-06-20T12:03:14.083Z,90.50
2019-06-20T12:08:22.138Z,99.40
2019-06-20T12:13:29.297Z,99.90
2019-06-20T12:18:36.377Z,99.90
2019-06-20T12:23:44.899Z,99.90
2019-06-20T12:28:52.004Z,99.90
2019-06-20T12:33:59.066Z,99.90
2019-06-20T12:39:07.841Z,99.90
2019-06-20T12:44:15.589Z,99.90
2019-06-20T12:49:24.043Z,99.90
2019-06-20T12:54:31.543Z,99.90
2019-06-20T12:59:39.449Z,99.90
2019-06-20T13:04:47.295Z,99.90
2019-06-20T13:09:54.363Z,99.90
2019-06-20T13:15:01.412Z,99.90
2019-06-20T13:20:08.812Z,99.90
2019-06-20T13:25:16.281Z,99.90
2019-06-20T13:30:23.434Z,99.90
2019-06-20T13:35:30.792Z,99.90
2019-06-20T13:40:39.589Z,99.90
2019-06-20T13:45:47.271Z,99.90
2019-06-20T13:50:55.383Z,99.90
2019-06-20T13:56:02.607Z,99.90
2019-06-20T14:01:09.671Z,99.90
2019-06-20T14:06:16.774Z,99.90
2019-06-20T14:11:23.843Z,99.90
2019-06-20T14:16:31.048Z,99.90
2019-06-20T14:21:38.102Z,99.90
2019-06-20T14:26:46.752Z,99.90
2019-06-20T14:31:53.896Z,99.90
2019-06-20T14:37:00.949Z,98.70
2019-06-20T14:42:08.098Z,99.80
2019-06-20T14:47:15.874Z,76.20
2019-06-20T14:52:23.039Z,76.60
2019-06-20T14:57:30.076Z,81.90
2019-06-20T15:02:38.716Z,91.40
2019-06-20T15:07:47.451Z,93.80
2019-06-20T15:12:56.018Z,95.70
2019-06-20T15:18:04.366Z,99.90
2019-06-20T15:23:11.978Z,90.60
2019-06-20T15:28:19.068Z,72.90
2019-06-20T15:33:26.123Z,69.10
2019-06-20T15:38:33.406Z,64.20
2019-06-20T15:43:40.581Z,63.10
2019-06-20T15:48:47.650Z,63.20
2019-06-20T15:53:54.935Z,62.90
2019-06-20T15:59:03.094Z,62.70
2019-06-20T16:04:10.138Z,63.70
2019-06-20T16:09:17.275Z,62.70
2019-06-20T16:14:24.418Z,63.70
2019-06-20T16:19:31.488Z,63.20
2019-06-20T16:24:38.536Z,64.70
2019-06-20T16:29:45.842Z,65.50
2019-06-20T16:34:52.993Z,71.00
2019-06-20T16:40:00.043Z,72.40
2019-06-20T16:45:07.664Z,75.20
2019-06-20T16:50:15.105Z,80.00
2019-06-20T16:55:22.365Z,83.60
2019-06-20T17:00:30.293Z,93.30
2019-06-20T17:05:38.177Z,95.20
2019-06-20T17:10:45.443Z,94.40
2019-06-20T17:15:52.701Z,94.80
2019-06-20T17:20:59.815Z,95.80
2019-06-20T17:26:08.139Z,97.70
2019-06-20T17:31:15.179Z,99.90
2019-06-20T17:36:23.081Z,99.90
2019-06-20T17:41:30.155Z,99.90
2019-06-20T17:46:37.272Z,99.90
2019-06-20T17:51:44.348Z,99.90
2019-06-20T17:56:51.396Z,99.90
2019-06-20T18:01:58.990Z,99.90
2019-06-20T18:07:06.585Z,99.90
2019-06-20T18:12:13.943Z,99.90
2019-06-20T18:17:21.109Z,99.90
2019-06-20T18:22:28.138Z,99.90
2019-06-20T18:27:35.163Z,99.90
2019-06-20T18:32:42.503Z,99.90
2019-06-20T18:37:50.465Z,99.90
2019-06-20T18:42:57.624Z,99.90
2019-06-20T18:48:05.093Z,99.90
2019-06-20T18:53:12.199Z,99.90
2019-06-20T18:58:19.155Z,99.90
2019-06-20T19:03:26.246Z,99.90
2019-06-20T19:08:34.322Z,99.90
2019-06-20T19:13:41.412Z,99.90
2019-06-20T19:18:48.481Z,99.90
2019-06-20T19:23:55.596Z,99.90
2019-06-20T19:29:02.752Z,99.90
2019-06-20T19:34:09.949Z,99.90
2019-06-20T19:39:17.209Z,99.90
2019-06-20T19:44:25.686Z,99.90
2019-06-20T19:49:32.693Z,99.90
2019-06-20T19:54:39.888Z,99.90
2019-06-20T19:59:46.957Z,99.90
2019-06-20T20:04:54.626Z,99.90
2019-06-20T20:10:01.717Z,99.90
2019-06-20T20:15:09.213Z,99.90
2019-06-20T20:20:16.571Z,99.90
2019-06-20T20:25:23.883Z,99.90
2019-06-20T20:30:30.945Z,99.90
2019-06-20T20:35:50.811Z,99.90
2019-06-20T20:40:57.912Z,99.90
2019-06-20T20:46:04.922Z,99.90
2019-06-20T20:51:12.061Z,99.90
2019-06-20T20:56:19.115Z,99.90
2019-06-20T21:01:31.081Z,99.90
2019-06-20T21:06:38.143Z,99.90
2019-06-20T21:11:45.209Z,99.90
2019-06-20T21:16:52.300Z,99.90
2019-06-20T21:22:00.672Z,99.90
2019-06-20T21:27:07.741Z,99.90
2019-06-20T21:32:14.939Z,99.90
2019-06-20T21:37:22.023Z,99.90
2019-06-20T21:42:29.068Z,99.90
2019-06-20T21:47:36.291Z,99.90
2019-06-20T21:52:43.373Z,99.90
2019-06-20T21:57:52.618Z,99.90
2019-06-20T22:03:00.166Z,99.90
2019-06-20T22:08:07.367Z,99.90
2019-06-20T22:13:14.446Z,99.90
2019-06-20T22:18:21.467Z,99.90
2019-06-20T22:23:28.546Z,99.90
2019-06-20T22:28:35.732Z,99.90
2019-06-20T22:33:43.285Z,99.90
2019-06-20T22:38:50.892Z,99.90
2019-06-20T22:43:57.977Z,99.90
2019-06-20T22:49:05.745Z,99.90
2019-06-20T22:54:12.813Z,99.90
2019-06-20T22:59:20.014Z,99.90
2019-06-20T23:04:27.197Z,99.90
2019-06-20T23:09:34.296Z,99.90
2019-06-20T23:14:41.350Z,99.90
2019-06-20T23:19:48.391Z,99.90
2019-06-20T23:24:55.448Z,99.90
2019-06-20T23:30:02.983Z,99.90
2019-06-20T23:35:10.306Z,99.90
2019-06-20T23:40:17.973Z,99.90
2019-06-20T23:45:25.337Z,99.90
2019-06-20T23:50:32.896Z,99.90
2019-06-20T23:55:39.942Z,99.90
